الصفحة الرئيسية
METAR-TAF:

METAR-TAF

مطار :

مطار انجمينا الدولي

انجمينا, تشاد

دائرة عرض: 12-08N, خط طول: 015-02E, ارتفاع: 295 متر

مراقبة الطقس الحالي

تاريخ ووقت الإصدار 37 دقيقة قبل الساعة 21:00UTC
ريح 4 عقدة من الغرب/الشمال الغربي
درجة الحرارة 21°درجة مئوية
الرطوبة 30%
ضغط 1014 hPa
الرؤية: 6000 متر

METAR: FTTJ 132100Z 30004KT 6000 NSC 21/03 Q1014 NOSIG

زمن: 22:37 (21:37 UTC)

توقعات

تاريخ ووقت الإصدار 4ساعات و 37 دقيقة قبل الساعة 17:00UTC
التوقعات صالحة من13 الساعة 18 UTC إلى 14 الساعة 24 UTC
ريح 4 عقدة من الشمال/الشمال الغربي تتزايد حتى 14 عقدة
الرؤية: 6000 متر
مؤقت
من 14 الساعة 00 UTC إلى 14 الساعة 07 UTC
الرؤية: 3000 متر
غبار

TAF: FTTJ 131700Z 1318/1424 34004G14KT 6000 NSC TEMPO 1400/1407 3000 DU

أرصاد الطقس والتوقعات من أكثر من 4000 مطار (تقارير الطقس للمطار METAR والتنبؤ بالطقس بالمطارTAF).

المحطات المتاحة هي النقط الصفراء والحمراء على الخريطة.

حرك المؤشر فوق النقطة لمعرفة اسم المحطة.

ثم انقر لمعرفة أرصاد وتوقعات الطقس.

لتغيير الخارطة: اضغط على الأزرار الخضراء مع رمز الصليب الأسود للتكبير. على الزر الأخضر مع شرطة للتصغير، أو على الأسهم الخضراء للخرائط المجاورة.


METAR-TAF: